Time;durP1;ratioP1;P1;durP2;ratioP2;P2;SDS_P1;SDS_P2;PMS_P1;PMS_P2;Temp;Humidity;BMP_temperature;BMP_pressure;BME280_temperature;BME280_humidity;BME280_pressure;Samples;Min_cycle;Max_cycle;Signal;HPM_P1;HPM_P2
2024/01/22 00:02:42;;;;;;;9.00;5.37;;;;;;;;;;4999697;28;21079;-86
2024/01/22 00:05:46;;;;;;;9.83;5.17;;;;;;;;;;4988775;28;20644;-85
2024/01/22 00:08:50;;;;;;;9.23;5.73;;;;;;;;;;4976822;28;20613;-86
2024/01/22 00:11:55;;;;;;;7.67;5.67;;;;;;;;;;5000384;28;20545;-85
2024/01/22 00:14:59;;;;;;;7.83;5.20;;;;;;;;;;4987720;28;20546;-86
2024/01/22 00:18:04;;;;;;;8.47;4.53;;;;;;;;;;4988228;28;20537;-85
2024/01/22 00:21:09;;;;;;;7.20;4.50;;;;;;;;;;4966189;28;20538;-87
2024/01/22 00:24:13;;;;;;;8.67;5.13;;;;;;;;;;4976722;28;20542;-86
2024/01/22 00:27:17;;;;;;;9.60;5.33;;;;;;;;;;4987971;28;20541;-86
2024/01/22 00:30:22;;;;;;;8.40;5.07;;;;;;;;;;4966452;28;20554;-85
2024/01/22 00:33:26;;;;;;;8.20;4.93;;;;;;;;;;4977163;28;20554;-85
2024/01/22 00:36:30;;;;;;;9.90;5.70;;;;;;;;;;4976520;28;20625;-87
2024/01/22 00:39:35;;;;;;;8.40;5.67;;;;;;;;;;4998794;28;20871;-86
2024/01/22 00:42:42;;;;;;;8.47;4.90;;;;;;;;;;5000017;28;20546;-86
2024/01/22 00:45:47;;;;;;;7.23;5.00;;;;;;;;;;4987892;28;20967;-86
2024/01/22 00:48:51;;;;;;;8.53;5.30;;;;;;;;;;4998542;28;20601;-86
2024/01/22 00:51:56;;;;;;;8.37;4.60;;;;;;;;;;4976474;28;20542;-85
2024/01/22 00:55:10;;;;;;;8.53;4.90;;;;;;;;;;4988666;28;20622;-86
2024/01/22 00:58:15;;;;;;;11.23;5.47;;;;;;;;;;4999255;28;21070;-85
2024/01/22 01:01:19;;;;;;;9.20;5.30;;;;;;;;;;5000045;28;20546;-86
2024/01/22 01:04:23;;;;;;;9.17;6.03;;;;;;;;;;4999449;28;20538;-87
2024/01/22 01:07:28;;;;;;;7.33;4.93;;;;;;;;;;4968052;28;20605;-86
2024/01/22 01:10:32;;;;;;;7.53;4.63;;;;;;;;;;4976634;28;21067;-86
2024/01/22 01:13:37;;;;;;;7.60;5.07;;;;;;;;;;4976983;28;21069;-85
2024/01/22 01:16:46;;;;;;;7.13;4.97;;;;;;;;;;4976026;28;20621;-86
2024/01/22 01:19:54;;;;;;;7.10;4.20;;;;;;;;;;4967079;28;20542;-85
2024/01/22 01:22:58;;;;;;;9.20;4.83;;;;;;;;;;4976452;28;21094;-86
2024/01/22 01:26:02;;;;;;;6.13;3.97;;;;;;;;;;4998938;28;20629;-85
2024/01/22 01:29:07;;;;;;;9.20;4.57;;;;;;;;;;4987294;28;20601;-87
2024/01/22 01:32:11;;;;;;;8.50;4.40;;;;;;;;;;4986494;28;20542;-86
2024/01/22 01:35:16;;;;;;;7.20;3.87;;;;;;;;;;4975799;28;21181;-86
2024/01/22 01:38:26;;;;;;;5.93;3.83;;;;;;;;;;4987689;28;20534;-86
2024/01/22 01:41:30;;;;;;;7.90;3.83;;;;;;;;;;4964216;28;21086;-85
2024/01/22 01:44:37;;;;;;;6.80;4.13;;;;;;;;;;4975835;28;20545;-87
2024/01/22 01:47:47;;;;;;;6.50;4.30;;;;;;;;;;4976033;28;20546;-85
2024/01/22 01:50:55;;;;;;;6.50;4.90;;;;;;;;;;4996963;28;20534;-86
2024/01/22 01:54:02;;;;;;;8.30;4.97;;;;;;;;;;4974615;28;20558;-86
2024/01/22 01:57:06;;;;;;;8.07;5.63;;;;;;;;;;4974854;28;20613;-86
2024/01/22 02:00:11;;;;;;;9.67;6.27;;;;;;;;;;4998561;28;20546;-86
2024/01/22 02:03:17;;;;;;;10.47;6.10;;;;;;;;;;4986272;28;20546;-85
2024/01/22 02:06:20;;;;;;;8.97;6.00;;;;;;;;;;4976028;28;20645;-87
2024/01/22 02:09:46;;;;;;;11.90;5.70;;;;;;;;;;4985977;28;20593;-86
2024/01/22 02:12:50;;;;;;;6.37;4.50;;;;;;;;;;4964348;28;21090;-86
2024/01/22 02:15:55;;;;;;;6.20;3.80;;;;;;;;;;4963916;28;20621;-87
2024/01/22 02:18:59;;;;;;;5.47;3.47;;;;;;;;;;4998193;28;20538;-85
2024/01/22 02:22:04;;;;;;;5.17;3.27;;;;;;;;;;4975917;28;20876;-86
2024/01/22 02:25:08;;;;;;;4.90;3.27;;;;;;;;;;4965364;28;20618;-86
2024/01/22 02:28:12;;;;;;;3.83;3.17;;;;;;;;;;4986870;28;20546;-86
2024/01/22 02:31:17;;;;;;;3.53;2.80;;;;;;;;;;4997425;28;20530;-88
2024/01/22 02:34:21;;;;;;;3.60;2.90;;;;;;;;;;4975636;28;20541;-86
2024/01/22 02:37:26;;;;;;;4.40;2.90;;;;;;;;;;4964642;28;20888;-86
2024/01/22 02:40:30;;;;;;;5.07;2.90;;;;;;;;;;4986722;28;21114;-86
2024/01/22 02:43:34;;;;;;;6.00;2.90;;;;;;;;;;4975602;28;20608;-86
2024/01/22 02:46:39;;;;;;;5.30;2.70;;;;;;;;;;4986631;28;20622;-85
2024/01/22 02:49:44;;;;;;;6.13;3.13;;;;;;;;;;4975568;28;20597;-86
2024/01/22 02:52:49;;;;;;;4.87;2.73;;;;;;;;;;4986603;28;20880;-86
2024/01/22 02:55:53;;;;;;;5.57;2.87;;;;;;;;;;4975497;28;20617;-86
2024/01/22 02:59:03;;;;;;;5.83;2.97;;;;;;;;;;4974679;28;20537;-86
2024/01/22 03:02:13;;;;;;;4.00;2.23;;;;;;;;;;4986570;28;20538;-87
2024/01/22 03:05:18;;;;;;;6.47;2.67;;;;;;;;;;4975020;28;20625;-86
2024/01/22 03:08:22;;;;;;;3.97;2.50;;;;;;;;;;4964557;28;21239;-87
2024/01/22 03:11:26;;;;;;;5.07;2.93;;;;;;;;;;4964300;28;20526;-86
2024/01/22 03:14:30;;;;;;;3.20;2.47;;;;;;;;;;4964077;28;20542;-86
2024/01/22 03:17:34;;;;;;;4.83;2.80;;;;;;;;;;4997498;28;20888;-86
2024/01/22 03:20:40;;;;;;;3.63;2.30;;;;;;;;;;4974914;28;20541;-85
2024/01/22 03:23:44;;;;;;;2.97;2.27;;;;;;;;;;4964443;28;20546;-87
2024/01/22 03:26:48;;;;;;;3.87;2.43;;;;;;;;;;4974899;28;20629;-86
2024/01/22 03:29:53;;;;;;;3.83;2.00;;;;;;;;;;4989959;28;21196;-87
2024/01/22 03:32:57;;;;;;;4.60;2.27;;;;;;;;;;4990020;28;20541;-86
2024/01/22 03:36:01;;;;;;;3.63;2.60;;;;;;;;;;4978330;28;20621;-85
2024/01/22 03:39:05;;;;;;;4.97;2.60;;;;;;;;;;5001796;28;20553;-87
2024/01/22 03:42:11;;;;;;;5.77;2.53;;;;;;;;;;4989856;28;20545;-85
2024/01/22 03:45:15;;;;;;;4.03;2.57;;;;;;;;;;4978235;28;20617;-87
2024/01/22 03:48:19;;;;;;;3.10;2.30;;;;;;;;;;4989771;28;20571;-86
2024/01/22 03:51:23;;;;;;;2.87;2.13;;;;;;;;;;4989185;28;21078;-86
2024/01/22 03:54:28;;;;;;;3.57;2.23;;;;;;;;;;4989071;28;20546;-85
2024/01/22 03:57:33;;;;;;;3.67;2.30;;;;;;;;;;5001142;28;20542;-86
2024/01/22 04:00:37;;;;;;;3.23;2.10;;;;;;;;;;4977668;28;20538;-85
2024/01/22 04:03:42;;;;;;;2.77;2.10;;;;;;;;;;4977668;28;20545;-85
2024/01/22 04:06:46;;;;;;;2.77;1.87;;;;;;;;;;4977279;28;20641;-85
2024/01/22 04:09:50;;;;;;;2.83;1.70;;;;;;;;;;4977554;28;21138;-85
2024/01/22 04:12:55;;;;;;;3.60;1.50;;;;;;;;;;4988416;28;20542;-87
2024/01/22 04:15:59;;;;;;;2.67;1.70;;;;;;;;;;4989094;28;20621;-85
2024/01/22 04:19:04;;;;;;;2.57;1.60;;;;;;;;;;4977318;28;20541;-85
2024/01/22 04:22:08;;;;;;;2.63;1.50;;;;;;;;;;4988460;28;20547;-85
2024/01/22 04:25:13;;;;;;;2.13;1.47;;;;;;;;;;4988264;28;21189;-86
2024/01/22 04:28:17;;;;;;;5.57;3.37;;;;;;;;;;4966527;28;20561;-86
2024/01/22 04:31:21;;;;;;;5.03;2.90;;;;;;;;;;4976775;28;20597;-85
2024/01/22 04:34:25;;;;;;;4.63;2.73;;;;;;;;;;4977014;28;20546;-86
2024/01/22 04:37:29;;;;;;;6.40;3.63;;;;;;;;;;4988155;28;20546;-85
2024/01/22 04:40:34;;;;;;;5.23;2.77;;;;;;;;;;4966318;28;20538;-86
2024/01/22 04:43:39;;;;;;;5.30;3.20;;;;;;;;;;4988405;28;20538;-86
2024/01/22 04:46:44;;;;;;;5.17;3.00;;;;;;;;;;4987611;28;20621;-85
2024/01/22 04:49:48;;;;;;;4.77;2.93;;;;;;;;;;4987878;28;20589;-85
2024/01/22 04:52:53;;;;;;;4.43;2.83;;;;;;;;;;4999581;28;20542;-85
2024/01/22 04:55:57;;;;;;;3.23;2.33;;;;;;;;;;4965644;28;21189;-85
2024/01/22 04:59:02;;;;;;;2.93;2.20;;;;;;;;;;4966091;28;20546;-86
2024/01/22 05:02:06;;;;;;;4.77;2.67;;;;;;;;;;4976781;28;20546;-85
2024/01/22 05:05:12;;;;;;;4.43;2.67;;;;;;;;;;4975994;28;20625;-85
2024/01/22 05:08:16;;;;;;;3.87;2.40;;;;;;;;;;4976062;28;20546;-85
2024/01/22 05:11:20;;;;;;;2.97;2.30;;;;;;;;;;4976363;28;20597;-86
2024/01/22 05:14:24;;;;;;;4.30;2.10;;;;;;;;;;4965287;28;20546;-86
2024/01/22 05:17:29;;;;;;;4.67;2.37;;;;;;;;;;4976233;28;20549;-85
2024/01/22 05:20:32;;;;;;;3.67;2.23;;;;;;;;;;4976011;28;20537;-85
2024/01/22 05:23:38;;;;;;;4.57;2.67;;;;;;;;;;4998367;28;20542;-85
2024/01/22 05:26:42;;;;;;;2.93;2.40;;;;;;;;;;4987883;28;20629;-85
2024/01/22 05:29:46;;;;;;;4.13;2.23;;;;;;;;;;4987845;28;20928;-85
2024/01/22 05:32:51;;;;;;;2.50;1.70;;;;;;;;;;4965251;28;20546;-87
2024/01/22 05:35:55;;;;;;;6.43;2.10;;;;;;;;;;4976438;28;20621;-86
2024/01/22 05:38:59;;;;;;;4.07;2.10;;;;;;;;;;4975820;28;20880;-86
2024/01/22 05:42:04;;;;;;;3.27;2.07;;;;;;;;;;4975841;28;21162;-87
2024/01/22 05:45:10;;;;;;;3.57;1.83;;;;;;;;;;4988466;28;20622;-86
2024/01/22 05:48:14;;;;;;;2.50;1.80;;;;;;;;;;4965077;28;20538;-86
2024/01/22 05:51:18;;;;;;;4.90;1.70;;;;;;;;;;4964260;28;20936;-87
2024/01/22 05:54:22;;;;;;;5.17;1.70;;;;;;;;;;4964399;28;20550;-86
2024/01/22 05:57:26;;;;;;;3.37;1.90;;;;;;;;;;4964377;28;20542;-86
2024/01/22 06:00:30;;;;;;;3.83;1.97;;;;;;;;;;4964259;28;20545;-86
2024/01/22 06:03:34;;;;;;;2.83;1.70;;;;;;;;;;4986549;28;20546;-86
2024/01/22 06:06:39;;;;;;;5.00;1.83;;;;;;;;;;4986244;28;20640;-87
2024/01/22 06:09:43;;;;;;;4.53;1.93;;;;;;;;;;4963121;28;20542;-86
2024/01/22 06:12:47;;;;;;;3.40;1.93;;;;;;;;;;4985301;28;20545;-86
2024/01/22 06:15:52;;;;;;;4.37;1.77;;;;;;;;;;4997528;28;20625;-86
2024/01/22 06:18:56;;;;;;;3.33;1.80;;;;;;;;;;4974954;28;20546;-87
2024/01/22 06:22:06;;;;;;;4.13;1.90;;;;;;;;;;4964245;28;20542;-86
2024/01/22 06:25:11;;;;;;;12.23;6.27;;;;;;;;;;4986041;28;20625;-86
2024/01/22 06:28:15;;;;;;;8.30;4.13;;;;;;;;;;4985751;28;20892;-87
2024/01/22 06:31:19;;;;;;;4.13;2.80;;;;;;;;;;4974894;28;20589;-86
2024/01/22 06:34:23;;;;;;;6.53;2.53;;;;;;;;;;4975390;28;20885;-86
2024/01/22 06:37:28;;;;;;;2.60;2.10;;;;;;;;;;4974569;28;21079;-86
2024/01/22 06:40:33;;;;;;;3.90;2.00;;;;;;;;;;4985510;28;21071;-87
2024/01/22 06:43:38;;;;;;;4.77;2.03;;;;;;;;;;4985800;28;20546;-86
2024/01/22 06:46:46;;;;;;;4.07;1.83;;;;;;;;;;4984612;28;21182;-87
2024/01/22 07:13:32;;;;;;;4.43;2.50;;;;;;;;;;4892726;29;20563;-86
2024/01/22 07:16:36;;;;;;;6.13;2.80;;;;;;;;;;4894262;29;20641;-87
2024/01/22 07:19:40;;;;;;;7.73;4.17;;;;;;;;;;5000596;28;20601;-87
2024/01/22 07:22:46;;;;;;;12.93;6.50;;;;;;;;;;4988048;28;20924;-86
2024/01/22 07:26:16;;;;;;;8.83;4.60;;;;;;;;;;4976068;28;20621;-87
2024/01/22 07:29:20;;;;;;;5.60;2.93;;;;;;;;;;4965493;28;20550;-87
2024/01/22 07:32:26;;;;;;;4.37;2.33;;;;;;;;;;4966970;28;20912;-86
2024/01/22 07:35:30;;;;;;;5.37;2.17;;;;;;;;;;4978052;28;20617;-86
2024/01/22 07:38:34;;;;;;;14.40;6.07;;;;;;;;;;4988801;28;20546;-86
2024/01/22 07:41:39;;;;;;;11.57;5.87;;;;;;;;;;4977850;28;20538;-86
2024/01/22 07:44:42;;;;;;;30.87;16.17;;;;;;;;;;4989134;28;20561;-86
2024/01/22 07:47:47;;;;;;;29.97;16.57;;;;;;;;;;5000224;28;20958;-86
2024/01/22 07:50:51;;;;;;;31.47;17.87;;;;;;;;;;4988526;28;20616;-86
2024/01/22 07:53:56;;;;;;;29.07;16.00;;;;;;;;;;4976737;28;20558;-86
2024/01/22 07:57:00;;;;;;;26.17;14.90;;;;;;;;;;4976825;28;20621;-86
2024/01/22 08:00:11;;;;;;;20.97;11.23;;;;;;;;;;5000075;28;21094;-87
2024/01/22 08:03:17;;;;;;;8.90;5.40;;;;;;;;;;4965686;28;20554;-87
2024/01/22 08:06:22;;;;;;;10.80;6.27;;;;;;;;;;4976096;28;20640;-89
2024/01/22 08:09:48;;;;;;;7.50;4.80;;;;;;;;;;4976526;28;20538;-88
2024/01/22 08:12:55;;;;;;;5.27;3.23;;;;;;;;;;4976536;28;20649;-84
2024/01/22 08:15:58;;;;;;;4.87;2.67;;;;;;;;;;4998367;28;20625;-83
2024/01/22 08:19:03;;;;;;;2.73;1.67;;;;;;;;;;4999500;28;21114;-83
2024/01/22 08:22:07;;;;;;;5.40;1.80;;;;;;;;;;4987577;28;20542;-85
2024/01/22 08:25:17;;;;;;;1.10;0.90;;;;;;;;;;4998715;28;20625;-83
2024/01/22 08:28:22;;;;;;;2.03;1.33;;;;;;;;;;4987516;28;20538;-84
2024/01/22 08:31:26;;;;;;;1.63;0.93;;;;;;;;;;4999330;28;20605;-86
2024/01/22 08:34:30;;;;;;;1.33;1.17;;;;;;;;;;4988039;28;20550;-86
2024/01/22 08:37:37;;;;;;;1.57;1.00;;;;;;;;;;4999025;28;20546;-86
2024/01/22 08:40:42;;;;;;;1.50;1.40;;;;;;;;;;4998271;28;20546;-87
2024/01/22 08:43:54;;;;;;;4.33;1.10;;;;;;;;;;4975016;28;20906;-87
2024/01/22 08:47:08;;;;;;;2.53;1.10;;;;;;;;;;4965192;28;21002;-87
2024/01/22 08:50:21;;;;;;;4.73;1.70;;;;;;;;;;4964586;28;21074;-87
2024/01/22 08:53:25;;;;;;;1.53;1.10;;;;;;;;;;4976210;28;21091;-87
2024/01/22 08:56:29;;;;;;;1.30;1.10;;;;;;;;;;4964625;28;20629;-87
2024/01/22 08:59:33;;;;;;;2.20;1.50;;;;;;;;;;4965636;28;20182;-85
2024/01/22 09:02:42;;;;;;;2.03;1.10;;;;;;;;;;4976511;28;20190;-86
2024/01/22 09:05:46;;;;;;;64.90;9.40;;;;;;;;;;4998398;28;20222;-86
2024/01/22 09:08:50;;;;;;;9.33;1.93;;;;;;;;;;4998628;28;20236;-86
2024/01/22 09:11:54;;;;;;;2.23;1.60;;;;;;;;;;4987572;28;20214;-86
2024/01/22 09:14:58;;;;;;;2.13;1.57;;;;;;;;;;4976422;28;20182;-86
2024/01/22 09:18:03;;;;;;;1.57;1.20;;;;;;;;;;4998729;28;20182;-86
2024/01/22 09:21:08;;;;;;;2.33;1.20;;;;;;;;;;4986655;28;20628;-86
2024/01/22 09:24:12;;;;;;;1.00;0.80;;;;;;;;;;4975484;28;20194;-86
2024/01/22 09:27:17;;;;;;;1.63;1.07;;;;;;;;;;4963361;28;20190;-86
2024/01/22 09:30:21;;;;;;;1.60;1.10;;;;;;;;;;4986136;28;20186;-86
2024/01/22 09:33:26;;;;;;;39.33;2.93;;;;;;;;;;4975507;28;20178;-86
2024/01/22 09:36:29;;;;;;;4.50;1.30;;;;;;;;;;4998131;28;20214;-86
2024/01/22 09:39:33;;;;;;;36.03;2.73;;;;;;;;;;4986671;28;20182;-87
2024/01/22 09:42:39;;;;;;;14.23;1.60;;;;;;;;;;4974944;28;20182;-86
2024/01/22 09:45:45;;;;;;;25.53;2.53;;;;;;;;;;4963925;28;20221;-86
2024/01/22 09:48:50;;;;;;;3.20;1.30;;;;;;;;;;4985579;28;20186;-86
2024/01/22 09:51:54;;;;;;;1.00;0.90;;;;;;;;;;4985513;28;20218;-86
2024/01/22 09:54:58;;;;;;;1.40;0.90;;;;;;;;;;4974683;28;20186;-86
2024/01/22 09:58:11;;;;;;;1.43;1.00;;;;;;;;;;4986340;28;20648;-86
2024/01/22 10:01:17;;;;;;;1.90;1.00;;;;;;;;;;4996699;28;20178;-86
2024/01/22 10:04:26;;;;;;;1.27;0.83;;;;;;;;;;4974327;28;20640;-86
2024/01/22 10:07:30;;;;;;;2.23;1.00;;;;;;;;;;4995512;28;20209;-86
2024/01/22 10:10:34;;;;;;;1.80;0.83;;;;;;;;;;4973759;28;20204;-86
2024/01/22 10:13:50;;;;;;;1.17;0.87;;;;;;;;;;4984435;28;20182;-86
2024/01/22 10:16:55;;;;;;;1.33;0.80;;;;;;;;;;4962761;28;20218;-88
2024/01/22 10:20:07;;;;;;;1.30;0.77;;;;;;;;;;4963347;28;20190;-86
2024/01/22 10:23:13;;;;;;;1.90;0.87;;;;;;;;;;4963453;28;20190;-88
2024/01/22 10:27:14;;;;;;;2.40;1.13;;;;;;;;;;4992255;28;20226;-87
2024/01/22 10:30:20;;;;;;;1.57;0.80;;;;;;;;;;4995247;28;20182;-87
2024/01/22 10:33:24;;;;;;;1.50;0.80;;;;;;;;;;4995750;28;20187;-87
2024/01/22 10:36:34;;;;;;;2.30;0.93;;;;;;;;;;4995068;28;20221;-87
2024/01/22 10:39:41;;;;;;;1.60;1.00;;;;;;;;;;4961713;28;20186;-88
2024/01/22 10:42:46;;;;;;;2.03;0.83;;;;;;;;;;4973232;28;20190;-87
2024/01/22 10:45:51;;;;;;;2.53;1.00;;;;;;;;;;4972166;28;20222;-87
2024/01/22 10:48:57;;;;;;;1.60;0.90;;;;;;;;;;4962232;28;20245;-87
2024/01/22 10:52:03;;;;;;;2.20;1.07;;;;;;;;;;4972712;28;20218;-88
2024/01/22 10:55:07;;;;;;;3.60;0.80;;;;;;;;;;4972530;28;20186;-88
2024/01/22 10:58:24;;;;;;;3.50;1.00;;;;;;;;;;4995502;28;20190;-88
2024/01/22 11:01:31;;;;;;;4.17;0.90;;;;;;;;;;4995311;28;20179;-88
2024/01/22 11:04:42;;;;;;;1.50;1.00;;;;;;;;;;4972815;28;20186;-88
2024/01/22 11:07:51;;;;;;;2.40;1.57;;;;;;;;;;4960948;28;20206;-88
2024/01/22 11:10:57;;;;;;;5.30;1.97;;;;;;;;;;4995525;28;20606;-88
2024/01/22 11:14:02;;;;;;;3.27;1.50;;;;;;;;;;4995630;28;20186;-88
2024/01/22 11:17:36;;;;;;;1.87;1.47;;;;;;;;;;4972057;28;20221;-89
2024/01/22 11:20:41;;;;;;;1.27;1.00;;;;;;;;;;4961430;28;20202;-87
2024/01/22 11:24:04;;;;;;;1.83;0.90;;;;;;;;;;4961937;28;20202;-87
2024/01/22 11:27:08;;;;;;;2.20;0.90;;;;;;;;;;4972255;28;20576;-87
2024/01/22 11:30:26;;;;;;;1.53;0.90;;;;;;;;;;4972532;28;20183;-87
2024/01/22 11:33:31;;;;;;;2.73;0.90;;;;;;;;;;4962493;28;20186;-85
2024/01/22 11:36:53;;;;;;;2.13;1.00;;;;;;;;;;4983425;28;20226;-86
2024/01/22 11:39:58;;;;;;;2.53;1.00;;;;;;;;;;4995945;28;20191;-85
2024/01/22 11:43:02;;;;;;;3.20;0.90;;;;;;;;;;4996290;28;20186;-86
2024/01/22 11:46:15;;;;;;;1.87;0.70;;;;;;;;;;4984439;28;20226;-86
2024/01/22 11:49:20;;;;;;;2.93;0.90;;;;;;;;;;4996606;28;20194;-85
2024/01/22 11:52:24;;;;;;;1.43;0.90;;;;;;;;;;4965200;28;20218;-86
2024/01/22 11:55:28;;;;;;;0.90;0.80;;;;;;;;;;4975919;28;20587;-87
2024/01/22 11:58:33;;;;;;;1.03;0.77;;;;;;;;;;4975106;28;20547;-88
2024/01/22 12:01:44;;;;;;;2.63;0.93;;;;;;;;;;4975024;28;20186;-87
2024/01/22 12:05:12;;;;;;;2.43;1.00;;;;;;;;;;4998215;28;20636;-86
2024/01/22 12:08:16;;;;;;;1.53;0.70;;;;;;;;;;4975918;28;20218;-87
2024/01/22 12:11:21;;;;;;;1.70;0.67;;;;;;;;;;4964777;28;20178;-87
2024/01/22 12:14:26;;;;;;;8.53;5.20;;;;;;;;;;4965955;28;20190;-86
2024/01/22 12:17:30;;;;;;;28.60;13.77;;;;;;;;;;4988103;28;20194;-86
2024/01/22 12:20:36;;;;;;;14.43;6.87;;;;;;;;;;4987180;28;20186;-85
2024/01/22 12:27:45;;;;;;;39.47;19.03;;;;;;;;;;4986521;28;20183;-88
2024/01/22 12:31:00;;;;;;;3.40;2.87;;;;;;;;;;4975556;28;20186;-88
2024/01/22 12:34:11;;;;;;;2.80;1.80;;;;;;;;;;4974990;28;20187;-87
2024/01/22 12:37:18;;;;;;;3.07;1.57;;;;;;;;;;4986517;28;20182;-88
2024/01/22 12:40:23;;;;;;;77.20;10.50;;;;;;;;;;4974715;28;20190;-88
2024/01/22 12:43:28;;;;;;;56.80;6.17;;;;;;;;;;4996699;28;20186;-88
2024/01/22 12:46:32;;;;;;;110.10;8.17;;;;;;;;;;4974260;28;20222;-88
2024/01/22 12:49:36;;;;;;;46.70;4.60;;;;;;;;;;4985772;28;20186;-88
2024/01/22 12:52:41;;;;;;;49.07;5.23;;;;;;;;;;4974518;28;20214;-88
2024/01/22 12:55:45;;;;;;;20.70;2.37;;;;;;;;;;4963436;28;20218;-88
2024/01/22 12:58:51;;;;;;;1.60;1.00;;;;;;;;;;4984868;28;20186;-88
2024/01/22 13:01:56;;;;;;;2.33;1.40;;;;;;;;;;4963470;28;20186;-88
2024/01/22 13:05:00;;;;;;;2.40;1.73;;;;;;;;;;4962793;28;20198;-88
2024/01/22 13:08:05;;;;;;;25.47;2.20;;;;;;;;;;4995950;28;20309;-88
2024/01/22 13:11:09;;;;;;;0.87;0.80;;;;;;;;;;4974327;28;20190;-89
2024/01/22 13:14:13;;;;;;;0.93;0.73;;;;;;;;;;4974201;28;20186;-88
2024/01/22 13:17:20;;;;;;;3.70;2.80;;;;;;;;;;4986972;28;20194;-88
2024/01/22 13:20:27;;;;;;;6.07;4.87;;;;;;;;;;4964098;28;20183;-87
2024/01/22 13:23:32;;;;;;;6.03;4.93;;;;;;;;;;4985499;28;20190;-88
2024/01/22 13:26:37;;;;;;;5.17;3.10;;;;;;;;;;4984854;28;20226;-88
2024/01/22 13:29:40;;;;;;;21.37;13.00;;;;;;;;;;4962774;28;20186;-88
2024/01/22 13:32:45;;;;;;;39.27;22.90;;;;;;;;;;4962557;28;20218;-88
2024/01/22 13:35:49;;;;;;;36.60;21.87;;;;;;;;;;4984502;28;20694;-88
2024/01/22 13:38:54;;;;;;;3.70;2.17;;;;;;;;;;4974414;28;20186;-88
2024/01/22 13:41:58;;;;;;;3.30;1.80;;;;;;;;;;4974348;28;20194;-88
2024/01/22 13:45:04;;;;;;;3.87;1.10;;;;;;;;;;4962694;28;20190;-88
2024/01/22 13:48:10;;;;;;;2.40;0.80;;;;;;;;;;4973646;28;20190;-87
2024/01/22 13:51:18;;;;;;;1.97;1.50;;;;;;;;;;4973782;28;20190;-88
2024/01/22 13:54:22;;;;;;;9.73;6.80;;;;;;;;;;4973499;28;20540;-87
2024/01/22 13:57:26;;;;;;;4.60;2.50;;;;;;;;;;4972792;28;20186;-88
2024/01/22 14:00:30;;;;;;;4.37;2.90;;;;;;;;;;4962288;28;20190;-88
2024/01/22 14:03:36;;;;;;;5.30;4.10;;;;;;;;;;4972980;28;20551;-87
2024/01/22 14:06:41;;;;;;;1.57;1.40;;;;;;;;;;4961548;28;20221;-88
2024/01/22 14:09:45;;;;;;;2.00;1.80;;;;;;;;;;4962079;28;20182;-88
2024/01/22 14:12:50;;;;;;;3.37;1.80;;;;;;;;;;4961247;28;20659;-88
2024/01/22 14:15:54;;;;;;;2.60;2.40;;;;;;;;;;4972889;28;20586;-88
2024/01/22 14:18:58;;;;;;;4.10;2.87;;;;;;;;;;4973190;28;20190;-88
2024/01/22 14:22:03;;;;;;;2.50;2.30;;;;;;;;;;4973810;28;20194;-85
2024/01/22 14:25:08;;;;;;;1.80;1.60;;;;;;;;;;4963110;28;20194;-85
2024/01/22 14:28:12;;;;;;;2.77;1.73;;;;;;;;;;4995441;28;20190;-86
2024/01/22 14:31:16;;;;;;;3.53;2.10;;;;;;;;;;4985055;28;20186;-85
2024/01/22 14:34:20;;;;;;;30.63;14.50;;;;;;;;;;4984063;28;20222;-86
2024/01/22 14:37:25;;;;;;;16.97;6.03;;;;;;;;;;4996717;28;20233;-84
2024/01/22 14:40:29;;;;;;;3.10;1.50;;;;;;;;;;4984192;28;20186;-85
2024/01/22 14:43:35;;;;;;;1.63;1.53;;;;;;;;;;4973425;28;20182;-84
2024/01/22 14:46:42;;;;;;;19.33;1.93;;;;;;;;;;4973191;28;20230;-84
2024/01/22 14:49:46;;;;;;;47.07;4.23;;;;;;;;;;4972969;28;20187;-85
2024/01/22 14:52:50;;;;;;;23.23;2.17;;;;;;;;;;4995055;28;20679;-84
2024/01/22 14:55:54;;;;;;;13.57;1.70;;;;;;;;;;4994912;28;20226;-84
2024/01/22 14:58:58;;;;;;;6.13;3.43;;;;;;;;;;4962292;28;20194;-86
2024/01/22 15:02:03;;;;;;;10.67;2.23;;;;;;;;;;4984256;28;20194;-85
2024/01/22 15:05:07;;;;;;;10.00;2.17;;;;;;;;;;4973006;28;20242;-85
2024/01/22 15:08:12;;;;;;;5.03;1.53;;;;;;;;;;4972711;28;20213;-86
2024/01/22 15:11:21;;;;;;;8.90;1.67;;;;;;;;;;4973427;28;20623;-86
2024/01/22 15:14:30;;;;;;;1.60;0.70;;;;;;;;;;4962547;28;20571;-85
2024/01/22 15:17:34;;;;;;;2.10;0.87;;;;;;;;;;4997173;28;20194;-86
2024/01/22 15:20:38;;;;;;;8.30;1.77;;;;;;;;;;4985152;28;20186;-85
2024/01/22 15:23:43;;;;;;;3.53;2.13;;;;;;;;;;4975551;28;20186;-85
2024/01/22 15:26:48;;;;;;;6.80;2.50;;;;;;;;;;4977316;28;20221;-86
2024/01/22 15:29:53;;;;;;;1.80;1.27;;;;;;;;;;4965965;28;20187;-86
2024/01/22 15:32:57;;;;;;;2.50;1.20;;;;;;;;;;4976955;28;20226;-85
2024/01/22 15:36:01;;;;;;;2.67;1.20;;;;;;;;;;4976686;28;20225;-85
2024/01/22 15:39:05;;;;;;;1.87;0.90;;;;;;;;;;4987793;28;20186;-85
2024/01/22 15:42:11;;;;;;;1.27;0.80;;;;;;;;;;4975941;28;20186;-86
2024/01/22 15:45:15;;;;;;;1.20;0.90;;;;;;;;;;4975190;28;20214;-86
2024/01/22 15:48:22;;;;;;;1.83;0.63;;;;;;;;;;4998529;28;20194;-85
2024/01/22 15:51:26;;;;;;;1.93;0.90;;;;;;;;;;5000423;28;20492;-85
2024/01/22 15:54:32;;;;;;;1.10;0.80;;;;;;;;;;5000970;28;20210;-86
2024/01/22 15:57:36;;;;;;;1.50;0.67;;;;;;;;;;4999504;28;20186;-85
2024/01/22 16:00:41;;;;;;;1.23;0.73;;;;;;;;;;4988368;28;20190;-86
2024/01/22 16:03:45;;;;;;;1.00;0.90;;;;;;;;;;5001319;28;20186;-86
2024/01/22 16:06:51;;;;;;;1.77;1.00;;;;;;;;;;4977503;28;20226;-86
2024/01/22 16:09:55;;;;;;;1.63;1.10;;;;;;;;;;4978116;28;20190;-84
2024/01/22 16:12:59;;;;;;;2.67;0.90;;;;;;;;;;4977051;28;20225;-84
2024/01/22 16:16:05;;;;;;;2.40;1.90;;;;;;;;;;4999635;28;20226;-83
2024/01/22 16:19:12;;;;;;;1.43;1.13;;;;;;;;;;5001629;28;20186;-79
2024/01/22 16:22:17;;;;;;;2.27;2.07;;;;;;;;;;4979590;28;20186;-79
2024/01/22 16:25:23;;;;;;;2.27;2.07;;;;;;;;;;5006171;28;20218;-82
2024/01/22 16:28:27;;;;;;;3.93;2.00;;;;;;;;;;5006498;28;20191;-84
2024/01/22 16:31:58;;;;;;;2.13;1.80;;;;;;;;;;4995291;28;20186;-87
2024/01/22 16:35:03;;;;;;;3.27;1.40;;;;;;;;;;4984419;28;20186;-89
2024/01/22 16:38:08;;;;;;;1.97;1.53;;;;;;;;;;4985704;28;20186;-87
2024/01/22 16:41:16;;;;;;;5.63;2.07;;;;;;;;;;4998346;28;20192;-87
2024/01/22 16:44:20;;;;;;;4.27;1.97;;;;;;;;;;4995656;28;20178;-86
2024/01/22 16:47:25;;;;;;;3.20;1.70;;;;;;;;;;4984114;28;20190;-86
2024/01/22 16:50:29;;;;;;;14.47;7.70;;;;;;;;;;4983710;28;20186;-87
2024/01/22 16:53:35;;;;;;;5.20;4.70;;;;;;;;;;4994615;28;20210;-88
2024/01/22 16:56:40;;;;;;;4.00;3.63;;;;;;;;;;5005985;28;20225;-89
2024/01/22 16:59:48;;;;;;;2.50;1.40;;;;;;;;;;4994265;28;20194;-86
2024/01/22 17:03:18;;;;;;;2.87;1.30;;;;;;;;;;4983520;28;20187;-86
2024/01/22 17:06:23;;;;;;;4.03;1.10;;;;;;;;;;4982815;28;20210;-87
2024/01/22 17:09:28;;;;;;;2.40;1.47;;;;;;;;;;4982318;28;20182;-88
2024/01/22 17:12:32;;;;;;;2.13;1.10;;;;;;;;;;4971506;28;20190;-85
2024/01/22 17:15:36;;;;;;;2.07;1.63;;;;;;;;;;4982571;28;20240;-88
2024/01/22 17:18:41;;;;;;;3.30;1.43;;;;;;;;;;4971401;28;20191;-87
2024/01/22 17:21:47;;;;;;;1.83;1.47;;;;;;;;;;4981707;28;20182;-87
2024/01/22 17:24:52;;;;;;;3.67;2.53;;;;;;;;;;4970687;28;20183;-87
2024/01/22 17:27:57;;;;;;;1.47;1.23;;;;;;;;;;4970666;28;20190;-87
2024/01/22 17:31:32;;;;;;;3.33;1.10;;;;;;;;;;4969935;28;20190;-90
2024/01/22 17:34:37;;;;;;;2.57;1.57;;;;;;;;;;4980627;28;20214;-88
2024/01/22 17:37:41;;;;;;;1.23;0.90;;;;;;;;;;4993705;28;20166;-90
2024/01/22 17:40:45;;;;;;;1.73;0.60;;;;;;;;;;4969734;28;20190;-89
2024/01/22 17:43:56;;;;;;;2.80;0.80;;;;;;;;;;4982060;28;20563;-90
2024/01/22 17:47:01;;;;;;;1.27;1.00;;;;;;;;;;4968493;28;20218;-90
2024/01/22 17:50:05;;;;;;;1.73;1.17;;;;;;;;;;4980238;28;20202;-89
2024/01/22 17:53:10;;;;;;;3.77;1.80;;;;;;;;;;4981261;28;20198;-87
2024/01/22 17:56:14;;;;;;;1.30;1.10;;;;;;;;;;4979111;28;20225;-87
2024/01/22 17:59:18;;;;;;;3.07;1.87;;;;;;;;;;4968342;28;20639;-86
2024/01/22 18:02:22;;;;;;;4.10;2.30;;;;;;;;;;4979463;28;20190;-87
2024/01/22 18:05:27;;;;;;;2.20;1.87;;;;;;;;;;4967917;28;20214;-87
2024/01/22 18:08:31;;;;;;;1.37;1.03;;;;;;;;;;4967990;28;20218;-87
2024/01/22 18:11:35;;;;;;;1.73;1.10;;;;;;;;;;4968295;28;20660;-87
2024/01/22 18:14:39;;;;;;;1.70;1.20;;;;;;;;;;4966988;28;20218;-87
2024/01/22 18:17:44;;;;;;;9.53;5.33;;;;;;;;;;4967511;28;20186;-87
2024/01/22 18:20:49;;;;;;;6.37;4.57;;;;;;;;;;4967507;28;20186;-87
2024/01/22 18:23:54;;;;;;;15.07;9.20;;;;;;;;;;4979671;28;20182;-86
2024/01/22 18:26:58;;;;;;;7.13;4.33;;;;;;;;;;4991704;28;20221;-87
2024/01/22 18:30:05;;;;;;;19.77;11.43;;;;;;;;;;4969222;28;20631;-88
2024/01/22 18:33:11;;;;;;;10.57;5.90;;;;;;;;;;4978379;28;20519;-87
2024/01/22 18:36:16;;;;;;;7.83;6.00;;;;;;;;;;4978409;28;20222;-87
2024/01/22 18:39:21;;;;;;;2.10;1.50;;;;;;;;;;4978914;28;20190;-87
2024/01/22 18:42:25;;;;;;;4.63;3.27;;;;;;;;;;4967465;28;20190;-87
2024/01/22 18:45:31;;;;;;;1.43;1.30;;;;;;;;;;4967487;28;20222;-87
2024/01/22 18:48:38;;;;;;;1.77;1.60;;;;;;;;;;4969069;28;20651;-87
2024/01/22 18:51:42;;;;;;;2.70;1.93;;;;;;;;;;4977604;28;20190;-89
2024/01/22 18:54:46;;;;;;;2.87;2.33;;;;;;;;;;4976682;28;20214;-86
2024/01/22 18:57:51;;;;;;;2.43;1.67;;;;;;;;;;4988737;28;20194;-87
2024/01/22 19:10:41;;;;;;;2.00;1.30;;;;;;;;;;5000070;28;20206;-90